createdAt,value
2023-05-02T00:01:20.451Z,7.40
2023-05-02T00:03:47.481Z,6.27
2023-05-02T00:06:14.439Z,6.33
2023-05-02T00:08:41.271Z,18.83
2023-05-02T00:11:08.062Z,5.77
2023-05-02T00:13:34.746Z,7.60
2023-05-02T00:16:01.732Z,7.57
2023-05-02T00:18:28.433Z,6.33
2023-05-02T00:20:56.760Z,6.30
2023-05-02T00:23:23.992Z,9.97
2023-05-02T00:25:50.967Z,5.33
2023-05-02T00:28:18.231Z,7.07
2023-05-02T00:30:46.171Z,5.90
2023-05-02T00:33:15.386Z,5.77
2023-05-02T00:35:42.288Z,9.70
2023-05-02T00:38:09.537Z,6.27
2023-05-02T00:40:52.114Z,5.57
2023-05-02T00:43:20.298Z,6.53
2023-05-02T00:45:47.347Z,5.57
2023-05-02T00:48:14.577Z,6.77
2023-05-02T00:50:43.044Z,7.30
2023-05-02T00:53:10.889Z,8.90
2023-05-02T00:55:38.052Z,7.47
2023-05-02T00:58:12.143Z,7.20
2023-05-02T01:00:45.967Z,6.67
2023-05-02T01:03:22.018Z,10.20
2023-05-02T01:06:16.678Z,7.97
2023-05-02T01:09:00.934Z,7.17
2023-05-02T01:12:03.440Z,8.07
2023-05-02T01:14:35.340Z,6.17
2023-05-02T01:17:05.329Z,9.57
2023-05-02T01:19:36.375Z,10.73
2023-05-02T01:22:07.952Z,6.40
2023-05-02T01:24:55.374Z,7.07
2023-05-02T01:27:51.494Z,7.37
2023-05-02T01:30:20.185Z,12.30
2023-05-02T01:32:49.969Z,12.90
2023-05-02T01:35:18.658Z,8.10
2023-05-02T01:37:48.436Z,8.20
2023-05-02T01:40:19.485Z,11.60
2023-05-02T01:42:49.564Z,7.50
2023-05-02T01:45:17.688Z,7.63
2023-05-02T01:47:45.857Z,7.23
2023-05-02T01:50:16.778Z,6.43
2023-05-02T01:52:45.569Z,5.70
2023-05-02T01:55:15.212Z,5.97
2023-05-02T01:57:44.825Z,7.67
2023-05-02T02:00:12.898Z,6.00
2023-05-02T02:02:45.604Z,6.83
2023-05-02T02:05:16.007Z,7.90
2023-05-02T02:07:43.588Z,8.43
2023-05-02T02:10:10.643Z,6.50
2023-05-02T02:12:43.687Z,8.00
2023-05-02T02:15:16.603Z,6.33
2023-05-02T02:17:48.298Z,10.20
2023-05-02T02:20:16.925Z,7.60
2023-05-02T02:22:45.358Z,7.50
2023-05-02T02:25:15.012Z,14.33
2023-05-02T02:27:42.470Z,21.33
2023-05-02T02:30:10.599Z,7.37
2023-05-02T02:32:38.384Z,9.43
2023-05-02T02:35:07.152Z,10.43
2023-05-02T02:37:48.700Z,9.30
2023-05-02T02:40:32.902Z,5.57
2023-05-02T02:43:29.882Z,5.60
2023-05-02T02:46:28.878Z,6.50
2023-05-02T02:49:13.439Z,9.00
2023-05-02T02:51:46.816Z,11.83
2023-05-02T02:54:36.243Z,6.07
2023-05-02T02:57:14.045Z,6.70
2023-05-02T02:59:54.234Z,6.77
2023-05-02T03:02:27.344Z,7.30
2023-05-02T03:04:56.208Z,6.30
2023-05-02T03:07:23.711Z,6.83
2023-05-02T03:09:50.882Z,6.40
2023-05-02T03:12:22.361Z,6.77
2023-05-02T03:14:50.977Z,6.00
2023-05-02T03:17:18.162Z,6.83
2023-05-02T03:19:46.027Z,6.20
2023-05-02T03:22:12.889Z,7.63
2023-05-02T03:24:40.084Z,5.80
2023-05-02T03:27:07.262Z,6.77
2023-05-02T03:29:39.985Z,9.20
2023-05-02T03:32:07.711Z,6.57
2023-05-02T03:34:36.852Z,10.43
2023-05-02T03:37:03.762Z,7.97
2023-05-02T03:39:31.231Z,9.70
2023-05-02T03:41:58.284Z,12.20
2023-05-02T03:44:25.085Z,7.00
2023-05-02T03:46:52.401Z,6.83
2023-05-02T03:49:20.008Z,6.47
2023-05-02T03:51:48.750Z,9.47
2023-05-02T03:54:20.497Z,8.50
2023-05-02T03:56:47.979Z,6.67
2023-05-02T03:59:24.005Z,9.33
2023-05-02T04:01:51.660Z,6.60
2023-05-02T04:04:22.031Z,12.63
2023-05-02T04:06:51.984Z,7.57
2023-05-02T04:09:23.548Z,6.00
2023-05-02T04:11:54.464Z,9.70
2023-05-02T04:14:21.479Z,13.50
2023-05-02T04:16:51.187Z,8.23
2023-05-02T04:19:23.630Z,11.40
2023-05-02T04:21:50.342Z,9.37
2023-05-02T04:24:17.751Z,6.40
2023-05-02T04:26:47.720Z,10.23
2023-05-02T04:29:15.188Z,11.23
2023-05-02T04:31:42.905Z,6.03
2023-05-02T04:34:11.182Z,6.20
2023-05-02T04:36:45.304Z,7.10
2023-05-02T04:39:15.645Z,14.90
2023-05-02T04:41:49.818Z,12.07
2023-05-02T04:44:16.732Z,8.23
2023-05-02T04:46:45.169Z,7.53
2023-05-02T04:49:12.525Z,10.43
2023-05-02T04:51:39.235Z,11.17
2023-05-02T04:54:06.175Z,7.27
2023-05-02T04:56:33.015Z,7.60
2023-05-02T04:58:59.827Z,9.33
2023-05-02T05:01:28.045Z,11.43
2023-05-02T05:03:56.486Z,13.30
2023-05-02T05:06:24.500Z,11.83
2023-05-02T05:08:52.276Z,13.47
2023-05-02T05:11:19.043Z,13.43
2023-05-02T05:13:46.218Z,12.47
2023-05-02T05:16:14.385Z,8.20
2023-05-02T05:18:42.504Z,29.10
2023-05-02T05:21:11.911Z,10.90
2023-05-02T05:23:39.977Z,10.33
2023-05-02T05:26:17.624Z,13.70
2023-05-02T05:28:48.667Z,16.93
2023-05-02T05:31:18.354Z,11.30
2023-05-02T05:33:48.892Z,10.00
2023-05-02T05:36:16.270Z,11.93
2023-05-02T05:38:43.161Z,8.97
2023-05-02T05:41:11.190Z,10.07
2023-05-02T05:43:41.624Z,15.93
2023-05-02T05:46:08.529Z,15.50
2023-05-02T05:48:36.902Z,25.63
2023-05-02T05:51:05.420Z,20.80
2023-05-02T05:53:32.686Z,16.87
2023-05-02T05:56:12.489Z,17.60
2023-05-02T05:58:44.114Z,13.27
2023-05-02T06:01:12.916Z,18.90
2023-05-02T06:03:40.746Z,19.50
2023-05-02T06:06:07.683Z,14.10
2023-05-02T06:08:34.824Z,13.50
2023-05-02T06:11:01.644Z,11.93
2023-05-02T06:13:28.418Z,17.07
2023-05-02T06:16:00.704Z,15.37
2023-05-02T06:18:27.460Z,13.13
2023-05-02T06:20:54.220Z,14.43
2023-05-02T06:23:21.107Z,13.13
2023-05-02T06:25:49.238Z,13.20
2023-05-02T06:28:16.245Z,10.23
2023-05-02T06:30:43.259Z,13.90
2023-05-02T06:33:10.199Z,22.03
2023-05-02T06:35:37.006Z,16.30
2023-05-02T06:38:03.701Z,18.90
2023-05-02T06:40:30.829Z,14.50
2023-05-02T06:42:57.888Z,21.77
2023-05-02T06:45:24.645Z,13.70
2023-05-02T06:47:51.568Z,14.83
2023-05-02T06:50:19.952Z,22.60
2023-05-02T06:52:46.899Z,16.73
2023-05-02T06:55:13.759Z,18.70
2023-05-02T06:57:40.533Z,28.73
2023-05-02T07:00:08.178Z,20.83
2023-05-02T07:02:35.175Z,16.20
2023-05-02T07:05:02.064Z,20.63
2023-05-02T07:07:28.922Z,16.90
2023-05-02T07:09:55.853Z,18.57
2023-05-02T07:12:23.052Z,21.50
2023-05-02T07:14:49.960Z,22.10
2023-05-02T07:17:17.498Z,18.90
2023-05-02T07:19:45.710Z,16.03
2023-05-02T07:22:12.929Z,15.60
2023-05-02T07:24:42.718Z,18.07
2023-05-02T07:27:10.865Z,18.23
2023-05-02T07:29:38.274Z,19.00
2023-05-02T07:32:06.461Z,15.00
2023-05-02T07:34:33.184Z,30.43
2023-05-02T07:37:00.358Z,19.43
2023-05-02T07:39:27.058Z,16.73
2023-05-02T07:41:54.258Z,17.57
2023-05-02T07:44:21.612Z,26.57
2023-05-02T07:46:48.875Z,14.20
2023-05-02T07:49:15.685Z,15.97
2023-05-02T07:51:42.816Z,16.80
2023-05-02T07:54:20.641Z,15.30
2023-05-02T07:56:47.434Z,15.47
2023-05-02T07:59:14.193Z,13.00
2023-05-02T08:01:41.680Z,15.50
2023-05-02T08:04:10.593Z,14.77
2023-05-02T08:06:38.117Z,19.40
2023-05-02T08:09:04.950Z,13.73
2023-05-02T08:11:31.708Z,24.53
2023-05-02T08:13:58.408Z,13.30
2023-05-02T08:16:25.205Z,15.27
2023-05-02T08:18:52.005Z,16.10
2023-05-02T08:21:19.124Z,16.07
2023-05-02T08:23:47.464Z,10.53
2023-05-02T08:26:15.829Z,17.97
2023-05-02T08:28:42.682Z,11.83
2023-05-02T08:31:09.444Z,15.87
2023-05-02T08:33:36.212Z,21.00
2023-05-02T08:36:14.659Z,14.60
2023-05-02T08:38:42.496Z,16.17
2023-05-02T08:41:12.823Z,9.17
2023-05-02T08:43:40.054Z,16.33
2023-05-02T08:46:10.932Z,13.77
2023-05-02T08:48:39.347Z,13.53
2023-05-02T08:51:10.121Z,8.13
2023-05-02T08:53:38.072Z,12.47
2023-05-02T08:56:06.370Z,9.57
2023-05-02T08:58:33.180Z,12.20
2023-05-02T09:01:14.952Z,13.27
2023-05-02T09:03:47.121Z,9.00
2023-05-02T09:06:19.334Z,10.77
2023-05-02T09:08:50.772Z,16.67
2023-05-02T09:11:18.204Z,12.00
2023-05-02T09:13:50.644Z,11.37
2023-05-02T09:16:25.748Z,15.40
2023-05-02T09:18:57.516Z,13.03
2023-05-02T09:21:26.398Z,9.20
2023-05-02T09:23:59.019Z,13.13
2023-05-02T09:26:32.453Z,8.53
2023-05-02T09:29:01.492Z,11.47
2023-05-02T09:31:54.728Z,9.73
2023-05-02T09:34:23.011Z,19.30
2023-05-02T09:36:53.882Z,8.00
2023-05-02T09:39:26.372Z,10.07
2023-05-02T09:41:54.571Z,11.60
2023-05-02T09:44:24.762Z,11.30
2023-05-02T09:46:53.616Z,11.43
2023-05-02T09:49:46.132Z,9.00
2023-05-02T09:52:15.429Z,12.57
2023-05-02T09:54:42.676Z,11.77
2023-05-02T09:57:11.352Z,9.63
2023-05-02T09:59:39.722Z,13.57
2023-05-02T10:02:07.652Z,7.73
2023-05-02T10:04:34.979Z,9.50
2023-05-02T10:07:03.467Z,7.83
2023-05-02T10:09:32.803Z,12.50
2023-05-02T10:12:06.690Z,9.07
2023-05-02T10:14:39.651Z,8.00
2023-05-02T10:17:14.050Z,7.13
2023-05-02T10:20:06.817Z,9.40
2023-05-02T10:22:37.238Z,10.47
2023-05-02T10:25:04.356Z,10.47
2023-05-02T10:27:32.865Z,9.17
2023-05-02T10:30:01.168Z,10.27
2023-05-02T10:32:29.344Z,7.40
2023-05-02T10:34:57.643Z,8.43
2023-05-02T10:37:26.568Z,7.73
2023-05-02T10:39:53.377Z,7.50
2023-05-02T10:42:20.988Z,9.03
2023-05-02T10:44:48.879Z,9.53
2023-05-02T10:47:22.064Z,12.87
2023-05-02T10:49:53.517Z,9.60
2023-05-02T10:52:35.222Z,9.50
2023-05-02T10:55:23.248Z,5.40
2023-05-02T10:58:02.075Z,6.00
2023-05-02T11:00:33.839Z,5.30
2023-05-02T11:03:01.528Z,7.17
2023-05-02T11:05:28.818Z,7.07
2023-05-02T11:08:15.684Z,6.40
2023-05-02T11:10:42.871Z,5.40
2023-05-02T11:13:09.957Z,8.10
2023-05-02T11:15:42.665Z,15.07
2023-05-02T11:18:12.530Z,9.33
2023-05-02T11:20:41.181Z,10.73
2023-05-02T11:23:14.961Z,10.50
2023-05-02T11:25:44.754Z,7.17
2023-05-02T11:28:37.645Z,8.03
2023-05-02T11:31:09.677Z,8.40
2023-05-02T11:33:37.401Z,4.63
2023-05-02T11:36:04.397Z,8.73
2023-05-02T11:38:39.093Z,5.97
2023-05-02T11:41:06.267Z,7.80
2023-05-02T11:43:33.156Z,6.10
2023-05-02T11:46:01.700Z,5.33
2023-05-02T11:48:30.357Z,8.67
2023-05-02T11:51:02.298Z,6.37
2023-05-02T11:53:29.834Z,6.17
2023-05-02T11:56:02.107Z,6.13
2023-05-02T11:58:32.728Z,4.83
2023-05-02T12:01:13.893Z,5.40
2023-05-02T12:03:41.125Z,6.13
2023-05-02T12:06:13.580Z,7.20
2023-05-02T12:08:42.851Z,5.07
2023-05-02T12:11:09.752Z,4.40
2023-05-02T12:13:48.296Z,3.17
2023-05-02T12:16:16.218Z,4.83
2023-05-02T12:18:43.189Z,4.63
2023-05-02T12:21:10.158Z,4.00
2023-05-02T12:23:37.607Z,4.20
2023-05-02T12:26:21.492Z,7.00
2023-05-02T12:28:50.512Z,6.83
2023-05-02T12:31:17.255Z,2.70
2023-05-02T12:33:44.269Z,8.60
2023-05-02T12:36:11.770Z,5.50
2023-05-02T12:38:38.852Z,4.00
2023-05-02T12:41:06.360Z,3.27
2023-05-02T12:43:48.321Z,3.17
2023-05-02T12:46:16.207Z,2.50
2023-05-02T12:48:44.859Z,3.20
2023-05-02T12:51:23.968Z,5.20
2023-05-02T12:53:50.739Z,4.40
2023-05-02T12:56:17.694Z,6.83
2023-05-02T12:58:46.522Z,7.03
2023-05-02T13:01:14.978Z,4.30
2023-05-02T13:03:43.822Z,3.20
2023-05-02T13:06:11.116Z,3.60
2023-05-02T13:08:38.022Z,6.93
2023-05-02T13:11:05.073Z,4.30
2023-05-02T13:13:32.703Z,2.93
2023-05-02T13:15:59.604Z,5.43
2023-05-02T13:18:28.074Z,3.57
2023-05-02T13:20:55.377Z,2.20
2023-05-02T13:23:22.337Z,2.90
2023-05-02T13:25:49.066Z,2.73
2023-05-02T13:28:15.877Z,2.70
2023-05-02T13:30:42.772Z,2.67
2023-05-02T13:33:09.609Z,3.33
2023-05-02T13:35:36.546Z,2.73
2023-05-02T13:38:03.799Z,6.07
2023-05-02T13:40:30.636Z,2.53
2023-05-02T13:42:57.620Z,2.80
2023-05-02T13:45:24.367Z,2.60
2023-05-02T13:47:51.127Z,2.07
2023-05-02T13:50:17.997Z,1.90
2023-05-02T13:52:45.966Z,3.37
2023-05-02T13:55:14.504Z,2.13
2023-05-02T13:57:41.207Z,2.70
2023-05-02T14:00:09.783Z,3.47
2023-05-02T14:02:37.048Z,2.47
2023-05-02T14:05:04.005Z,1.80
2023-05-02T14:07:30.973Z,2.23
2023-05-02T14:09:57.859Z,2.03
2023-05-02T14:12:24.637Z,2.23
2023-05-02T14:14:51.649Z,2.10
2023-05-02T14:17:18.743Z,2.90
2023-05-02T14:19:45.744Z,1.87
2023-05-02T14:22:12.473Z,5.63
2023-05-02T14:24:39.175Z,2.17
2023-05-02T14:27:07.694Z,2.57
2023-05-02T14:29:34.457Z,6.10
2023-05-02T14:32:01.549Z,6.03
2023-05-02T14:34:28.429Z,3.20
2023-05-02T14:36:55.946Z,7.33
2023-05-02T14:39:22.798Z,6.70
2023-05-02T14:41:49.626Z,5.50
2023-05-02T14:44:18.226Z,5.37
2023-05-02T14:46:45.013Z,9.30
2023-05-02T14:49:11.816Z,4.73
2023-05-02T14:51:42.990Z,15.70
2023-05-02T14:54:09.790Z,7.10
2023-05-02T14:56:36.668Z,3.20
2023-05-02T14:59:03.490Z,3.60
2023-05-02T15:01:30.775Z,3.13
2023-05-02T15:04:06.648Z,4.37
2023-05-02T15:06:36.023Z,7.97
2023-05-02T15:09:03.733Z,8.63
2023-05-02T15:11:30.703Z,7.00
2023-05-02T15:13:59.447Z,4.70
2023-05-02T15:16:27.369Z,7.93
2023-05-02T15:18:54.430Z,5.27
2023-05-02T15:21:21.433Z,2.67
2023-05-02T15:23:48.188Z,2.87
2023-05-02T15:26:15.303Z,2.47
2023-05-02T15:28:42.233Z,6.03
2023-05-02T15:31:09.101Z,5.70
2023-05-02T15:33:35.819Z,5.33
2023-05-02T15:36:02.577Z,2.23
2023-05-02T15:38:29.326Z,3.00
2023-05-02T15:40:57.226Z,7.83
2023-05-02T15:43:25.073Z,3.10
2023-05-02T15:45:52.798Z,2.10
2023-05-02T15:48:20.543Z,1.77
2023-05-02T15:50:48.118Z,3.13
2023-05-02T15:53:17.938Z,1.50
2023-05-02T15:55:46.266Z,4.80
2023-05-02T15:58:13.676Z,1.50
2023-05-02T16:00:40.523Z,8.87
2023-05-02T16:03:07.501Z,2.10
2023-05-02T16:05:35.600Z,4.27
2023-05-02T16:08:02.626Z,1.43
2023-05-02T16:10:29.516Z,1.50
2023-05-02T16:12:56.383Z,2.37
2023-05-02T16:15:23.749Z,8.87
2023-05-02T16:17:50.885Z,6.83
2023-05-02T16:20:18.164Z,2.77
2023-05-02T16:22:48.842Z,3.53
2023-05-02T16:25:18.641Z,7.03
2023-05-02T16:27:45.438Z,4.10
2023-05-02T16:30:12.784Z,1.37
2023-05-02T16:32:39.868Z,6.83
2023-05-02T16:35:08.222Z,2.70
2023-05-02T16:37:35.780Z,3.10
2023-05-02T16:40:05.401Z,5.33
2023-05-02T16:42:32.980Z,3.47
2023-05-02T16:45:00.106Z,3.07
2023-05-02T16:47:28.007Z,1.50
2023-05-02T16:49:56.096Z,2.13
2023-05-02T16:52:23.101Z,3.40
2023-05-02T16:54:50.107Z,9.03
2023-05-02T16:57:20.947Z,2.53
2023-05-02T16:59:49.665Z,2.00
2023-05-02T17:02:16.791Z,4.87
2023-05-02T17:04:43.888Z,1.77
2023-05-02T17:07:13.541Z,2.93
2023-05-02T17:09:41.815Z,1.83
2023-05-02T17:12:12.628Z,2.90
2023-05-02T17:14:42.335Z,12.13
2023-05-02T17:17:10.449Z,2.47
2023-05-02T17:19:38.167Z,1.10
2023-05-02T17:22:06.624Z,1.20
2023-05-02T17:24:33.424Z,1.60
2023-05-02T17:27:00.971Z,2.07
2023-05-02T17:29:27.736Z,2.60
2023-05-02T17:31:56.898Z,1.33
2023-05-02T17:34:28.362Z,1.03
2023-05-02T17:36:55.471Z,3.30
2023-05-02T17:39:23.528Z,2.10
2023-05-02T17:41:50.477Z,1.50
2023-05-02T17:44:17.570Z,1.00
2023-05-02T17:46:44.499Z,2.37
2023-05-02T17:49:11.425Z,2.00
2023-05-02T17:51:38.220Z,1.50
2023-05-02T17:54:05.348Z,2.33
2023-05-02T17:56:34.940Z,2.03
2023-05-02T17:59:02.274Z,1.93
2023-05-02T18:01:29.034Z,1.60
2023-05-02T18:03:56.111Z,2.67
2023-05-02T18:06:23.013Z,2.37
2023-05-02T18:08:49.949Z,2.00
2023-05-02T18:11:18.284Z,5.40
2023-05-02T18:13:46.204Z,5.53
2023-05-02T18:16:14.244Z,2.40
2023-05-02T18:18:41.542Z,3.57
2023-05-02T18:21:09.544Z,3.67
2023-05-02T18:23:36.834Z,4.83
2023-05-02T18:26:04.305Z,5.90
2023-05-02T18:28:31.320Z,2.77
2023-05-02T18:30:58.102Z,2.80
2023-05-02T18:33:24.874Z,10.93
2023-05-02T18:35:51.553Z,4.77
2023-05-02T18:38:19.640Z,8.90
2023-05-02T18:40:46.412Z,3.93
2023-05-02T18:43:13.074Z,6.10
2023-05-02T18:45:39.783Z,6.30
2023-05-02T18:48:06.821Z,3.70
2023-05-02T18:50:33.744Z,2.30
2023-05-02T18:53:00.597Z,5.03
2023-05-02T18:55:27.359Z,6.10
2023-05-02T18:57:54.133Z,5.10
2023-05-02T19:00:21.452Z,2.40
2023-05-02T19:02:53.463Z,2.10
2023-05-02T19:05:20.422Z,4.13
2023-05-02T19:07:47.106Z,3.80
2023-05-02T19:10:13.848Z,3.13
2023-05-02T19:12:41.934Z,2.97
2023-05-02T19:15:09.618Z,2.77
2023-05-02T19:17:36.598Z,3.47
2023-05-02T19:20:03.865Z,4.70
2023-05-02T19:22:32.161Z,5.10
2023-05-02T19:24:59.074Z,3.83
2023-05-02T19:27:25.918Z,3.77
2023-05-02T19:29:58.077Z,9.77
2023-05-02T19:32:25.451Z,7.60
2023-05-02T19:34:52.241Z,9.90
2023-05-02T19:37:18.951Z,5.80
2023-05-02T19:39:45.729Z,6.87
2023-05-02T19:42:12.431Z,4.23
2023-05-02T19:44:39.134Z,6.00
2023-05-02T19:47:05.855Z,6.47
2023-05-02T19:49:32.818Z,14.83
2023-05-02T19:51:59.553Z,9.80
2023-05-02T19:54:26.517Z,4.40
2023-05-02T19:56:53.211Z,14.40
2023-05-02T19:59:19.904Z,8.17
2023-05-02T20:01:46.762Z,7.40
2023-05-02T20:04:14.214Z,5.00
2023-05-02T20:06:41.037Z,6.03
2023-05-02T20:09:07.908Z,10.10
2023-05-02T20:11:34.635Z,12.20
2023-05-02T20:14:01.658Z,7.10
2023-05-02T20:16:31.166Z,11.70
2023-05-02T20:18:58.142Z,5.87
2023-05-02T20:21:24.877Z,8.10
2023-05-02T20:23:51.819Z,5.60
2023-05-02T20:26:18.560Z,4.83
2023-05-02T20:28:45.366Z,5.37
2023-05-02T20:31:12.100Z,5.60
2023-05-02T20:33:45.240Z,6.20
2023-05-02T20:36:15.114Z,5.67
2023-05-02T20:38:43.060Z,6.10
2023-05-02T20:41:14.893Z,9.00
2023-05-02T20:43:44.749Z,11.67
2023-05-02T20:46:14.046Z,6.07
2023-05-02T20:48:41.032Z,4.83
2023-05-02T20:51:08.888Z,4.60
2023-05-02T20:53:39.000Z,6.00
2023-05-02T20:56:06.754Z,3.77
2023-05-02T20:58:33.595Z,6.47
2023-05-02T21:01:00.360Z,3.73
2023-05-02T21:03:28.112Z,7.70
2023-05-02T21:05:56.566Z,5.17
2023-05-02T21:08:23.802Z,5.23
2023-05-02T21:10:51.425Z,5.80
2023-05-02T21:13:18.799Z,4.17
2023-05-02T21:15:45.782Z,8.67
2023-05-02T21:18:12.867Z,10.20
2023-05-02T21:20:41.487Z,5.23
2023-05-02T21:23:11.260Z,5.17
2023-05-02T21:25:38.571Z,8.43
2023-05-02T21:28:05.984Z,8.87
2023-05-02T21:30:33.043Z,8.33
2023-05-02T21:32:59.901Z,4.80
2023-05-02T21:35:27.340Z,10.13
2023-05-02T21:37:54.063Z,8.73
2023-05-02T21:40:20.857Z,7.73
2023-05-02T21:42:47.775Z,5.83
2023-05-02T21:45:14.661Z,8.70
2023-05-02T21:47:41.781Z,7.10
2023-05-02T21:50:09.036Z,10.63
2023-05-02T21:52:36.222Z,6.70
2023-05-02T21:55:03.488Z,7.73
2023-05-02T21:57:30.640Z,8.70
2023-05-02T21:59:57.338Z,8.80
2023-05-02T22:02:24.108Z,7.43
2023-05-02T22:04:50.886Z,5.10
2023-05-02T22:07:17.688Z,5.93
2023-05-02T22:09:44.545Z,6.27
2023-05-02T22:12:11.670Z,4.00
2023-05-02T22:14:45.175Z,8.00
2023-05-02T22:17:12.768Z,5.27
2023-05-02T22:19:39.897Z,5.60
2023-05-02T22:22:06.944Z,7.50
2023-05-02T22:24:33.890Z,9.30
2023-05-02T22:27:00.850Z,6.87
2023-05-02T22:29:27.623Z,8.07
2023-05-02T22:31:54.417Z,6.73
2023-05-02T22:34:21.288Z,8.43
2023-05-02T22:36:48.022Z,8.87
2023-05-02T22:39:15.766Z,10.03
2023-05-02T22:41:43.409Z,5.60
2023-05-02T22:44:11.087Z,6.13
2023-05-02T22:46:38.763Z,4.93
2023-05-02T22:49:07.741Z,11.10
2023-05-02T22:51:34.841Z,6.23
2023-05-02T22:54:04.686Z,6.33
2023-05-02T22:56:31.524Z,8.30
2023-05-02T22:58:58.345Z,10.40
2023-05-02T23:01:25.282Z,5.53
2023-05-02T23:03:52.137Z,10.43
2023-05-02T23:06:19.131Z,8.63
2023-05-02T23:08:46.116Z,8.53
2023-05-02T23:11:13.023Z,11.90
2023-05-02T23:13:39.828Z,9.50
2023-05-02T23:16:06.751Z,11.57
2023-05-02T23:18:33.492Z,9.37
2023-05-02T23:21:00.505Z,8.07
2023-05-02T23:23:27.747Z,5.20
2023-05-02T23:25:54.414Z,6.73
2023-05-02T23:28:21.484Z,8.67
2023-05-02T23:30:49.374Z,5.33
2023-05-02T23:33:16.758Z,9.97
2023-05-02T23:35:43.561Z,7.80
2023-05-02T23:38:10.279Z,8.63
2023-05-02T23:40:37.121Z,12.70
2023-05-02T23:43:05.037Z,6.97
2023-05-02T23:45:31.788Z,8.03
2023-05-02T23:47:58.801Z,9.80
2023-05-02T23:50:25.843Z,9.00
2023-05-02T23:52:52.614Z,14.77
2023-05-02T23:55:19.699Z,7.03
2023-05-02T23:57:46.436Z,6.90
